createdAt,value
2023-05-13T00:02:09.310Z,12.05
2023-05-13T00:04:36.378Z,12.00
2023-05-13T00:07:03.259Z,12.03
2023-05-13T00:09:37.429Z,12.03
2023-05-13T00:14:46.435Z,12.09
2023-05-13T00:17:21.793Z,12.06
2023-05-13T00:19:50.580Z,12.04
2023-05-13T00:25:21.862Z,12.05
2023-05-13T00:27:48.909Z,11.90
2023-05-13T00:30:15.734Z,12.04
2023-05-13T00:38:06.987Z,12.10
2023-05-13T00:40:45.274Z,12.14
2023-05-13T00:43:21.928Z,12.10
2023-05-13T00:45:51.220Z,12.13
2023-05-13T00:48:17.879Z,12.02
2023-05-13T00:50:45.908Z,11.98
2023-05-13T00:53:15.312Z,11.91
2023-05-13T00:55:47.049Z,11.94
2023-05-13T00:58:16.211Z,12.10
2023-05-13T01:01:08.540Z,12.06
2023-05-13T01:04:32.394Z,12.03
2023-05-13T01:07:48.680Z,12.19
2023-05-13T01:14:14.798Z,12.27
2023-05-13T01:22:34.004Z,12.41
2023-05-13T01:27:52.273Z,12.39
2023-05-13T01:30:30.554Z,12.33
2023-05-13T01:33:13.304Z,12.23
2023-05-13T01:35:42.239Z,12.18
2023-05-13T01:38:14.123Z,12.27
2023-05-13T01:40:42.937Z,12.26
2023-05-13T01:43:20.528Z,12.29
2023-05-13T01:45:47.373Z,12.27
2023-05-13T01:48:26.065Z,12.25
2023-05-13T01:50:53.645Z,12.24
2023-05-13T01:53:24.277Z,12.21
2023-05-13T01:56:05.872Z,12.21
2023-05-13T01:58:41.016Z,12.21
2023-05-13T02:01:14.697Z,12.20
2023-05-13T02:03:43.787Z,12.19
2023-05-13T02:06:14.116Z,12.04
2023-05-13T02:08:41.351Z,12.03
2023-05-13T02:11:13.997Z,12.20
2023-05-13T02:13:48.088Z,12.10
2023-05-13T02:16:16.937Z,12.23
2023-05-13T02:18:45.410Z,12.12
2023-05-13T02:21:13.943Z,12.18
2023-05-13T02:24:01.805Z,12.11
2023-05-13T02:26:33.443Z,12.17
2023-05-13T02:29:16.729Z,12.18
2023-05-13T02:31:44.035Z,12.17
2023-05-13T02:34:13.910Z,12.04
2023-05-13T02:36:41.584Z,12.12
2023-05-13T02:39:08.610Z,12.17
2023-05-13T02:41:38.592Z,11.98
2023-05-13T02:44:06.295Z,12.06
2023-05-13T02:46:34.547Z,12.03
2023-05-13T02:49:01.201Z,11.96
2023-05-13T02:51:28.319Z,11.97
2023-05-13T02:53:55.463Z,12.00
2023-05-13T02:56:33.625Z,12.03
2023-05-13T02:59:00.470Z,11.96
2023-05-13T03:01:30.982Z,11.97
2023-05-13T03:03:57.657Z,11.94
2023-05-13T03:06:36.955Z,11.91
2023-05-13T03:09:27.694Z,11.84
2023-05-13T03:12:02.002Z,11.80
2023-05-13T03:17:13.837Z,11.75
2023-05-13T03:19:46.468Z,11.72
2023-05-13T03:22:14.089Z,11.63
2023-05-13T03:24:59.433Z,11.63
2023-05-13T03:27:40.028Z,11.58
2023-05-13T03:30:06.750Z,11.53
2023-05-13T03:32:36.689Z,11.54
2023-05-13T03:35:04.016Z,11.53
2023-05-13T03:37:33.859Z,11.53
2023-05-13T03:40:00.795Z,11.46
2023-05-13T03:42:38.572Z,11.49
2023-05-13T03:45:10.092Z,11.36
2023-05-13T03:47:43.094Z,11.31
2023-05-13T03:50:14.701Z,11.30
2023-05-13T03:52:46.271Z,11.30
2023-05-13T03:55:16.320Z,11.36
2023-05-13T03:57:55.947Z,11.35
2023-05-13T04:00:29.628Z,11.30
2023-05-13T04:03:03.881Z,11.23
2023-05-13T04:05:35.789Z,11.11
2023-05-13T04:08:06.396Z,11.17
2023-05-13T04:10:39.281Z,11.16
2023-05-13T04:13:09.759Z,10.98
2023-05-13T04:15:37.476Z,11.00
2023-05-13T04:18:04.436Z,11.09
2023-05-13T04:20:33.581Z,11.08
2023-05-13T04:23:01.892Z,11.06
2023-05-13T04:25:31.747Z,11.06
2023-05-13T04:27:58.395Z,11.09
2023-05-13T04:30:29.974Z,11.14
2023-05-13T04:33:00.860Z,11.21
2023-05-13T04:35:30.215Z,11.23
2023-05-13T04:37:59.412Z,11.26
2023-05-13T04:40:28.733Z,11.29
2023-05-13T04:45:40.618Z,11.32
2023-05-13T04:48:12.739Z,11.40
2023-05-13T04:50:52.402Z,11.48
2023-05-13T04:53:26.764Z,11.53
2023-05-13T04:56:24.806Z,11.46
2023-05-13T04:59:02.169Z,11.71
2023-05-13T05:01:34.440Z,11.74
2023-05-13T05:14:22.717Z,12.20
2023-05-13T05:16:49.666Z,12.25
2023-05-13T05:22:05.346Z,12.43
2023-05-13T05:24:32.797Z,12.56
2023-05-13T05:27:05.176Z,12.30
2023-05-13T05:32:13.626Z,12.88
2023-05-13T05:34:49.630Z,12.96
2023-05-13T05:40:07.740Z,13.26
2023-05-13T05:45:55.639Z,13.54
2023-05-13T05:48:31.152Z,13.59
2023-05-13T05:51:11.377Z,13.69
2023-05-13T05:56:36.280Z,13.74
2023-05-13T06:01:49.753Z,13.87
2023-05-13T06:04:30.633Z,14.04
2023-05-13T06:07:03.531Z,14.35
2023-05-13T06:17:37.909Z,15.42
2023-05-13T06:20:09.907Z,15.55
2023-05-13T06:22:38.575Z,16.06
2023-05-13T06:25:16.405Z,16.33
2023-05-13T06:27:42.970Z,16.54
2023-05-13T06:36:09.940Z,16.77
2023-05-13T06:38:52.842Z,16.93
2023-05-13T06:41:27.174Z,17.17
2023-05-13T06:47:16.803Z,17.67
2023-05-13T06:55:51.564Z,17.43
2023-05-13T07:01:42.691Z,17.53
2023-05-13T07:13:20.959Z,17.86
2023-05-13T07:15:58.607Z,17.49
2023-05-13T07:18:26.294Z,17.59
2023-05-13T07:24:07.111Z,18.51
2023-05-13T07:29:33.555Z,18.77
2023-05-13T07:39:07.143Z,19.71
2023-05-13T08:04:33.312Z,17.73
2023-05-13T08:07:09.801Z,17.59
2023-05-13T08:18:29.662Z,17.68
2023-05-13T08:27:40.682Z,18.07
2023-05-13T08:30:14.222Z,18.84
2023-05-13T08:35:59.860Z,19.36
2023-05-13T08:54:12.599Z,20.23
2023-05-13T09:31:04.131Z,19.44
2023-05-13T09:33:36.596Z,19.34
2023-05-13T09:41:39.369Z,19.09
2023-05-13T09:44:28.602Z,19.03
2023-05-13T09:52:37.578Z,19.59
2023-05-13T09:55:09.667Z,19.60
2023-05-13T09:57:40.735Z,19.77
2023-05-13T10:00:28.726Z,20.00
2023-05-13T10:02:58.538Z,20.14
2023-05-13T10:05:45.982Z,20.13
2023-05-13T10:08:14.692Z,20.10
2023-05-13T10:10:48.312Z,20.32
2023-05-13T10:13:19.238Z,20.42
2023-05-13T10:21:30.483Z,20.50
2023-05-13T10:24:07.007Z,20.57
2023-05-13T10:26:43.743Z,20.36
2023-05-13T10:32:06.543Z,20.26
2023-05-13T10:47:03.381Z,20.81
2023-05-13T10:52:50.796Z,21.07
2023-05-13T10:58:49.365Z,21.09
2023-05-13T11:06:51.002Z,22.01
2023-05-13T11:14:48.157Z,21.42
2023-05-13T11:17:21.009Z,21.39
2023-05-13T11:22:35.840Z,21.20
2023-05-13T11:27:53.774Z,20.85
2023-05-13T11:31:11.222Z,20.77
2023-05-13T11:48:22.216Z,21.02
2023-05-13T11:56:17.804Z,21.21
2023-05-13T11:58:53.559Z,21.20
2023-05-13T12:01:30.475Z,21.07
2023-05-13T12:04:13.616Z,21.14
2023-05-13T12:15:02.209Z,20.91
2023-05-13T12:20:27.532Z,20.74
2023-05-13T12:28:35.412Z,21.00
2023-05-13T12:31:28.652Z,20.81
2023-05-13T12:33:55.572Z,21.19
2023-05-13T12:36:37.335Z,21.15
2023-05-13T12:44:38.520Z,20.57
2023-05-13T12:47:22.888Z,20.34
2023-05-13T13:03:31.030Z,19.93
2023-05-13T13:11:37.731Z,20.20
2023-05-13T13:14:16.032Z,20.06
2023-05-13T13:16:46.454Z,20.29
2023-05-13T13:41:29.441Z,22.21
2023-05-13T13:44:08.972Z,22.05
2023-05-13T13:57:55.470Z,21.65
2023-05-13T14:12:16.801Z,22.12
2023-05-13T14:17:26.140Z,22.09
2023-05-13T14:19:56.632Z,21.81
2023-05-13T14:22:35.398Z,21.53
2023-05-13T14:25:13.898Z,21.30
2023-05-13T14:27:44.161Z,20.93
2023-05-13T14:30:17.394Z,20.92
2023-05-13T14:32:51.069Z,20.67
2023-05-13T14:35:20.929Z,20.69
2023-05-13T14:37:56.916Z,20.53
2023-05-13T14:43:07.232Z,20.61
2023-05-13T14:45:35.764Z,20.69
2023-05-13T14:48:02.485Z,20.57
2023-05-13T14:50:50.416Z,20.58
2023-05-13T14:53:41.386Z,20.49
2023-05-13T15:02:01.861Z,20.20
2023-05-13T15:04:43.278Z,20.12
2023-05-13T15:07:18.409Z,20.14
2023-05-13T15:09:47.535Z,20.42
2023-05-13T15:12:16.189Z,20.56
2023-05-13T15:14:43.439Z,20.53
2023-05-13T15:17:21.379Z,20.35
2023-05-13T15:19:54.792Z,20.46
2023-05-13T15:22:28.393Z,20.76
2023-05-13T15:24:58.582Z,20.73
2023-05-13T15:33:02.135Z,21.58
2023-05-13T15:35:32.725Z,21.73
2023-05-13T15:46:42.933Z,22.15
2023-05-13T15:54:45.564Z,21.92
2023-05-13T15:57:13.386Z,21.88
2023-05-13T15:59:49.262Z,21.76
2023-05-13T16:05:37.220Z,21.44
2023-05-13T16:08:03.840Z,21.49
2023-05-13T16:13:26.738Z,21.56
2023-05-13T16:16:07.501Z,21.32
2023-05-13T16:21:23.289Z,21.16
2023-05-13T16:26:32.802Z,20.82
2023-05-13T16:31:43.375Z,20.29
2023-05-13T16:34:11.064Z,20.07
2023-05-13T16:36:38.634Z,19.94
2023-05-13T16:39:12.497Z,19.99
2023-05-13T16:41:51.788Z,20.11
2023-05-13T16:52:34.504Z,20.11
2023-05-13T16:55:13.534Z,20.05
2023-05-13T17:00:23.708Z,19.74
2023-05-13T17:02:51.034Z,19.72
2023-05-13T17:05:20.465Z,19.78
2023-05-13T17:07:49.901Z,19.81
2023-05-13T17:10:19.057Z,19.82
2023-05-13T17:18:16.969Z,19.74
2023-05-13T17:23:44.154Z,19.72
2023-05-13T17:26:15.476Z,19.65
2023-05-13T17:48:39.294Z,19.35
2023-05-13T18:14:21.663Z,18.90
2023-05-13T18:16:49.037Z,18.81
2023-05-13T18:19:17.459Z,18.77
2023-05-13T18:21:46.506Z,18.74
2023-05-13T18:24:16.860Z,18.67
2023-05-13T18:26:47.793Z,18.46
2023-05-13T18:34:36.992Z,18.14
2023-05-13T18:37:10.274Z,18.13
2023-05-13T18:39:47.011Z,17.98
2023-05-13T18:50:27.435Z,17.57
2023-05-13T18:52:57.171Z,17.61
2023-05-13T18:55:39.103Z,17.44
2023-05-13T19:01:05.218Z,17.23
2023-05-13T19:06:43.784Z,16.99
2023-05-13T19:14:42.323Z,16.92
2023-05-13T19:19:51.268Z,16.81
2023-05-13T19:25:12.775Z,16.41
2023-05-13T19:27:41.193Z,16.21
2023-05-13T19:32:53.614Z,16.26
2023-05-13T19:35:20.909Z,16.19
2023-05-13T19:37:47.906Z,16.13
2023-05-13T19:40:14.974Z,16.05
2023-05-13T19:45:36.971Z,16.01
2023-05-13T19:48:38.141Z,15.88
2023-05-13T19:51:06.496Z,15.81
2023-05-13T19:54:00.412Z,15.72
2023-05-13T19:59:14.522Z,15.60
2023-05-13T20:09:47.798Z,15.48
2023-05-13T20:12:14.631Z,15.37
2023-05-13T20:14:58.895Z,15.32
2023-05-13T20:17:25.914Z,15.22
2023-05-13T20:19:59.952Z,15.24
2023-05-13T20:22:30.238Z,15.30
2023-05-13T20:24:57.421Z,15.29
2023-05-13T20:27:27.023Z,15.25
2023-05-13T20:29:55.943Z,14.92
2023-05-13T20:32:25.432Z,15.14
2023-05-13T20:35:13.190Z,15.12
2023-05-13T20:37:45.319Z,15.05
2023-05-13T20:40:22.084Z,15.02
2023-05-13T20:42:57.456Z,14.93
2023-05-13T20:45:25.230Z,15.05
2023-05-13T20:47:54.908Z,14.90
2023-05-13T20:50:29.235Z,14.88
2023-05-13T20:53:00.702Z,14.89
2023-05-13T20:55:34.050Z,14.88
2023-05-13T20:58:03.371Z,14.87
2023-05-13T21:00:31.601Z,14.68
2023-05-13T21:03:03.551Z,14.68
2023-05-13T21:05:38.734Z,14.59
2023-05-13T21:14:08.934Z,14.77
2023-05-13T21:16:36.408Z,14.69
2023-05-13T21:19:07.924Z,14.84
2023-05-13T21:21:36.079Z,14.80
2023-05-13T21:24:03.125Z,14.71
2023-05-13T21:26:31.186Z,14.60
2023-05-13T21:29:00.218Z,14.63
2023-05-13T21:31:29.093Z,14.63
2023-05-13T21:33:58.646Z,14.62
2023-05-13T21:36:32.952Z,14.61
2023-05-13T21:39:02.429Z,14.57
2023-05-13T21:41:30.704Z,14.55
2023-05-13T21:43:58.019Z,14.53
2023-05-13T21:46:27.385Z,14.44
2023-05-13T21:48:54.139Z,14.27
2023-05-13T21:51:21.088Z,14.20
2023-05-13T21:53:49.167Z,14.07
2023-05-13T21:58:59.771Z,14.07
2023-05-13T22:01:26.727Z,14.03
2023-05-13T22:03:57.725Z,13.95
2023-05-13T22:09:05.545Z,13.83
2023-05-13T22:11:33.789Z,13.81
2023-05-13T22:14:01.144Z,13.85
2023-05-13T22:16:28.241Z,13.73
2023-05-13T22:18:58.854Z,13.82
2023-05-13T22:21:31.296Z,13.91
2023-05-13T22:23:59.942Z,13.81
2023-05-13T22:26:47.771Z,13.90
2023-05-13T22:29:15.113Z,13.92
2023-05-13T22:31:44.391Z,13.91
2023-05-13T22:34:19.847Z,13.84
2023-05-13T22:36:46.897Z,13.86
2023-05-13T22:39:18.880Z,13.69
2023-05-13T22:41:45.453Z,13.73
2023-05-13T22:44:21.940Z,13.69
2023-05-13T22:46:49.790Z,13.67
2023-05-13T22:49:25.498Z,13.45
2023-05-13T22:51:52.832Z,13.49
2023-05-13T22:54:23.025Z,13.47
2023-05-13T22:56:49.906Z,13.44
2023-05-13T22:59:17.495Z,13.29
2023-05-13T23:01:48.184Z,13.44
2023-05-13T23:04:14.873Z,13.36
2023-05-13T23:06:41.547Z,13.31
2023-05-13T23:09:09.806Z,13.29
2023-05-13T23:11:37.372Z,13.18
2023-05-13T23:14:06.327Z,13.19
2023-05-13T23:16:34.925Z,13.09
2023-05-13T23:19:04.631Z,13.11
2023-05-13T23:21:37.485Z,13.09
2023-05-13T23:24:05.134Z,13.03
2023-05-13T23:26:33.226Z,12.99
2023-05-13T23:29:00.016Z,12.94
2023-05-13T23:31:28.553Z,12.99
2023-05-13T23:33:55.394Z,12.84
2023-05-13T23:36:22.402Z,12.93
2023-05-13T23:39:03.880Z,12.62
2023-05-13T23:41:38.922Z,12.95
2023-05-13T23:44:13.971Z,12.95
2023-05-13T23:46:41.229Z,12.91
2023-05-13T23:49:07.983Z,12.85
2023-05-13T23:51:35.581Z,12.73
2023-05-13T23:54:03.920Z,12.54
2023-05-13T23:56:31.169Z,12.67
2023-05-13T23:59:09.203Z,12.64
